Time;durP1;ratioP1;P1;durP2;ratioP2;P2;SDS_P1;SDS_P2;PMS_P1;PMS_P2;Temp;Humidity;BMP_temperature;BMP_pressure;BME280_temperature;BME280_humidity;BME280_pressure;Samples;Min_cycle;Max_cycle;Signal;HPM_P1;HPM_P2
2022/01/19 00:00:18;;;;;;;8.07;5.17;;;;;;;;;;4987505;28;20481;-65
2022/01/19 00:02:44;;;;;;;6.67;5.83;;;;;;;;;;4988252;28;20913;-64
2022/01/19 00:05:11;;;;;;;5.80;5.23;;;;;;;;;;4988641;28;20515;-66
2022/01/19 00:07:37;;;;;;;9.90;6.17;;;;;;;;;;4988400;28;20477;-65
2022/01/19 00:10:08;;;;;;;9.40;6.17;;;;;;;;;;4984217;28;20477;-65
2022/01/19 00:12:34;;;;;;;7.73;5.70;;;;;;;;;;4988045;28;20495;-65
2022/01/19 00:15:00;;;;;;;6.33;5.70;;;;;;;;;;4991151;28;20486;-65
2022/01/19 00:17:26;;;;;;;4.97;4.60;;;;;;;;;;4986734;28;20441;-65
2022/01/19 00:19:52;;;;;;;5.57;5.17;;;;;;;;;;4990734;28;20559;-64
2022/01/19 00:22:18;;;;;;;5.40;5.00;;;;;;;;;;4985413;28;20448;-65
2022/01/19 00:24:44;;;;;;;6.20;5.50;;;;;;;;;;4986328;28;20495;-65
2022/01/19 00:27:11;;;;;;;5.30;4.63;;;;;;;;;;4990952;28;20868;-65
2022/01/19 00:29:37;;;;;;;5.53;5.03;;;;;;;;;;4985153;28;20447;-65
2022/01/19 00:32:03;;;;;;;6.13;4.07;;;;;;;;;;4985379;28;20441;-65
2022/01/19 00:34:29;;;;;;;4.27;4.00;;;;;;;;;;4983712;28;20437;-65
2022/01/19 00:36:56;;;;;;;4.97;4.33;;;;;;;;;;4989784;28;20433;-64
2022/01/19 00:39:31;;;;;;;4.73;4.33;;;;;;;;;;4986941;28;20441;-64
2022/01/19 00:41:57;;;;;;;4.43;4.13;;;;;;;;;;4989231;28;20440;-64
2022/01/19 00:44:23;;;;;;;4.43;3.80;;;;;;;;;;4988838;28;20469;-64
2022/01/19 00:46:49;;;;;;;4.07;3.87;;;;;;;;;;4986745;28;20453;-65
2022/01/19 00:49:15;;;;;;;7.40;4.70;;;;;;;;;;4989638;28;20440;-64
2022/01/19 00:51:41;;;;;;;5.53;4.30;;;;;;;;;;4986396;28;20829;-65
2022/01/19 00:54:07;;;;;;;3.77;3.40;;;;;;;;;;4987745;28;20878;-64
2022/01/19 00:56:35;;;;;;;3.90;3.70;;;;;;;;;;4983859;28;20480;-65
2022/01/19 00:59:01;;;;;;;4.63;4.27;;;;;;;;;;4987613;28;20732;-65
2022/01/19 01:01:27;;;;;;;4.60;4.13;;;;;;;;;;4985948;28;20885;-66
2022/01/19 01:03:53;;;;;;;3.93;3.57;;;;;;;;;;4984733;28;20449;-65
2022/01/19 01:06:19;;;;;;;3.57;3.30;;;;;;;;;;4987653;28;20434;-65
2022/01/19 01:08:45;;;;;;;8.07;3.73;;;;;;;;;;4984579;28;20986;-64
2022/01/19 01:11:12;;;;;;;4.13;3.40;;;;;;;;;;5001188;28;20425;-65
2022/01/19 01:16:38;;;;;;;3.53;3.23;;;;;;;;;;4989884;28;20447;-65
2022/01/19 01:19:05;;;;;;;3.63;3.40;;;;;;;;;;4988742;28;20437;-65
2022/01/19 01:21:31;;;;;;;3.27;3.07;;;;;;;;;;4989412;28;20445;-65
2022/01/19 01:23:57;;;;;;;4.57;3.33;;;;;;;;;;4989188;28;20962;-66
2022/01/19 01:26:23;;;;;;;3.60;3.37;;;;;;;;;;4986068;28;20467;-65
2022/01/19 01:28:49;;;;;;;2.53;2.43;;;;;;;;;;4990151;28;20887;-64
2022/01/19 01:31:15;;;;;;;3.10;2.90;;;;;;;;;;4989720;28;20429;-67
2022/01/19 01:33:42;;;;;;;3.10;3.00;;;;;;;;;;4985957;28;20925;-64
2022/01/19 01:36:08;;;;;;;2.90;2.70;;;;;;;;;;4988694;28;20471;-65
2022/01/19 01:38:34;;;;;;;2.77;2.77;;;;;;;;;;4989860;28;20964;-64
2022/01/19 01:41:00;;;;;;;2.60;2.50;;;;;;;;;;4988463;28;20437;-65
2022/01/19 01:43:26;;;;;;;2.53;2.43;;;;;;;;;;4988667;28;20437;-67
2022/01/19 01:45:59;;;;;;;2.50;2.40;;;;;;;;;;4987234;28;20500;-64
2022/01/19 01:48:26;;;;;;;2.47;2.37;;;;;;;;;;4989988;28;20780;-64
2022/01/19 01:53:37;;;;;;;5.07;2.70;;;;;;;;;;4987236;28;20449;-65
2022/01/19 01:56:04;;;;;;;2.67;2.47;;;;;;;;;;4986742;28;20453;-65
2022/01/19 01:58:32;;;;;;;2.27;2.27;;;;;;;;;;4989383;28;20429;-66
2022/01/19 02:00:59;;;;;;;2.63;2.53;;;;;;;;;;5002682;28;20441;-67
2022/01/19 02:03:25;;;;;;;1.90;1.80;;;;;;;;;;4987160;28;20436;-65
2022/01/19 02:06:14;;;;;;;2.00;1.83;;;;;;;;;;4988927;28;20480;-67
2022/01/19 02:08:46;;;;;;;2.60;2.50;;;;;;;;;;4985404;28;20837;-65
2022/01/19 02:21:46;;;;;;;3.00;2.90;;;;;;;;;;4988439;28;20468;-65
2022/01/19 02:24:17;;;;;;;3.10;2.90;;;;;;;;;;4990458;28;20436;-65
2022/01/19 02:40:18;;;;;;;4.93;4.63;;;;;;;;;;4990309;28;20452;-65
2022/01/19 02:50:39;;;;;;;7.60;5.10;;;;;;;;;;4991098;28;20463;-66
2022/01/19 02:53:05;;;;;;;5.33;4.80;;;;;;;;;;4988447;28;20453;-65
2022/01/19 02:55:33;;;;;;;6.30;4.00;;;;;;;;;;4991977;28;20464;-65
2022/01/19 02:57:59;;;;;;;8.90;4.73;;;;;;;;;;4987642;28;20883;-65
2022/01/19 03:08:44;;;;;;;8.27;4.50;;;;;;;;;;4988905;28;20484;-65
2022/01/19 03:11:10;;;;;;;3.57;3.37;;;;;;;;;;4989278;28;20953;-66
2022/01/19 03:13:36;;;;;;;4.13;3.70;;;;;;;;;;4987679;28;20484;-66
2022/01/19 03:16:02;;;;;;;3.77;3.47;;;;;;;;;;4986947;28;20959;-65
2022/01/19 03:18:28;;;;;;;4.80;3.60;;;;;;;;;;4990431;28;20881;-65
2022/01/19 03:20:54;;;;;;;3.27;3.07;;;;;;;;;;4989492;28;20472;-65
2022/01/19 03:23:21;;;;;;;4.97;4.57;;;;;;;;;;4989034;28;20426;-66
2022/01/19 03:25:48;;;;;;;5.03;4.53;;;;;;;;;;4984654;28;20500;-67
2022/01/19 03:28:14;;;;;;;4.70;4.27;;;;;;;;;;4989872;28;20439;-69
2022/01/19 03:30:40;;;;;;;5.77;4.53;;;;;;;;;;4990377;28;20552;-67
2022/01/19 03:33:06;;;;;;;5.73;5.20;;;;;;;;;;4985783;28;20438;-65
2022/01/19 03:35:32;;;;;;;4.63;4.17;;;;;;;;;;4987879;28;20455;-65
2022/01/19 03:37:58;;;;;;;3.80;3.50;;;;;;;;;;4988344;28;20460;-65
2022/01/19 03:40:25;;;;;;;3.13;3.03;;;;;;;;;;4989232;28;20437;-66
2022/01/19 03:42:51;;;;;;;3.50;3.30;;;;;;;;;;4986497;28;20952;-65
2022/01/19 03:45:17;;;;;;;4.10;3.57;;;;;;;;;;4986008;28;20863;-65
2022/01/19 03:47:49;;;;;;;5.07;3.93;;;;;;;;;;4985796;28;20444;-65
2022/01/19 03:50:15;;;;;;;8.23;3.83;;;;;;;;;;4991277;28;20475;-67
2022/01/19 03:52:41;;;;;;;4.27;3.87;;;;;;;;;;4986075;28;20469;-65
2022/01/19 03:55:08;;;;;;;3.50;3.20;;;;;;;;;;4988386;28;20432;-68
2022/01/19 03:57:34;;;;;;;3.37;3.20;;;;;;;;;;4990824;28;20448;-68
2022/01/19 04:00:00;;;;;;;4.00;3.70;;;;;;;;;;4988025;28;20866;-68
2022/01/19 04:02:26;;;;;;;3.57;3.37;;;;;;;;;;4987009;28;20917;-70
2022/01/19 04:05:03;;;;;;;4.50;4.10;;;;;;;;;;4988394;28;20473;-67
2022/01/19 04:07:29;;;;;;;4.63;4.10;;;;;;;;;;4989272;28;20492;-68
2022/01/19 04:09:55;;;;;;;4.27;3.97;;;;;;;;;;4990065;28;20495;-65
2022/01/19 04:12:41;;;;;;;14.23;8.10;;;;;;;;;;4985802;28;20836;-65
2022/01/19 04:15:07;;;;;;;8.70;5.57;;;;;;;;;;4986942;28;20426;-69
2022/01/19 04:17:33;;;;;;;8.00;6.17;;;;;;;;;;4989924;28;20777;-69
2022/01/19 04:19:59;;;;;;;5.13;4.73;;;;;;;;;;4988847;28;20812;-65
2022/01/19 04:22:25;;;;;;;3.20;3.00;;;;;;;;;;4987940;28;20441;-65
2022/01/19 04:24:51;;;;;;;4.30;4.00;;;;;;;;;;4989180;28;20476;-65
2022/01/19 04:29:45;;;;;;;4.10;3.87;;;;;;;;;;4987158;28;20973;-66
2022/01/19 04:32:16;;;;;;;4.93;3.80;;;;;;;;;;4985216;28;20811;-66
2022/01/19 04:34:44;;;;;;;3.70;3.50;;;;;;;;;;4987329;28;20445;-65
2022/01/19 04:48:13;;;;;;;4.20;3.10;;;;;;;;;;4990000;28;20796;-65
2022/01/19 05:01:44;;;;;;;5.87;4.47;;;;;;;;;;4987459;28;20479;-64
2022/01/19 05:06:49;;;;;;;4.53;3.73;;;;;;;;;;4986415;28;20547;-64
2022/01/19 05:09:53;;;;;;;4.20;3.90;;;;;;;;;;4987761;28;20465;-65
2022/01/19 05:14:58;;;;;;;4.03;3.80;;;;;;;;;;4984686;28;20480;-66
2022/01/19 05:17:23;;;;;;;3.90;3.70;;;;;;;;;;4985903;28;20466;-64
2022/01/19 05:19:49;;;;;;;5.17;3.60;;;;;;;;;;4989090;28;20440;-65
2022/01/19 05:22:17;;;;;;;4.50;4.17;;;;;;;;;;4984971;28;20447;-64
2022/01/19 05:24:43;;;;;;;3.87;3.50;;;;;;;;;;4986452;28;20489;-64
2022/01/19 05:27:09;;;;;;;3.60;3.40;;;;;;;;;;4984345;28;20440;-65
2022/01/19 05:29:34;;;;;;;3.70;3.60;;;;;;;;;;4987139;28;20440;-65
2022/01/19 05:32:00;;;;;;;3.93;3.67;;;;;;;;;;4984061;28;20975;-64
2022/01/19 05:34:26;;;;;;;4.50;3.77;;;;;;;;;;4987358;28;20435;-65
2022/01/19 05:36:52;;;;;;;4.77;4.00;;;;;;;;;;4984816;28;20524;-64
2022/01/19 05:39:18;;;;;;;3.77;3.43;;;;;;;;;;4983594;28;21323;-64
2022/01/19 05:41:44;;;;;;;4.00;3.87;;;;;;;;;;4988953;28;20778;-64
2022/01/19 05:44:10;;;;;;;4.17;3.33;;;;;;;;;;4985095;28;20449;-64
2022/01/19 05:46:36;;;;;;;3.67;3.47;;;;;;;;;;4982279;28;20493;-64
2022/01/19 05:49:02;;;;;;;4.43;3.97;;;;;;;;;;4988266;28;20444;-65
2022/01/19 05:51:28;;;;;;;3.80;3.60;;;;;;;;;;4982549;28;20446;-64
2022/01/19 05:53:54;;;;;;;5.50;4.73;;;;;;;;;;4988942;28;20440;-64
2022/01/19 05:56:20;;;;;;;4.47;4.10;;;;;;;;;;4983745;28;20442;-64
2022/01/19 05:58:46;;;;;;;4.23;3.93;;;;;;;;;;4987605;28;20441;-65
2022/01/19 06:01:12;;;;;;;4.07;3.83;;;;;;;;;;4987401;28;20445;-64
2022/01/19 06:03:38;;;;;;;4.23;4.03;;;;;;;;;;4986658;28;20531;-64
2022/01/19 06:06:04;;;;;;;6.23;4.03;;;;;;;;;;4988064;28;20492;-65
2022/01/19 06:08:41;;;;;;;4.07;3.77;;;;;;;;;;4986869;28;20472;-65
2022/01/19 06:11:07;;;;;;;4.33;4.10;;;;;;;;;;4982213;28;20440;-64
2022/01/19 06:13:34;;;;;;;4.37;4.13;;;;;;;;;;4984104;28;20946;-64
2022/01/19 06:16:00;;;;;;;5.20;4.70;;;;;;;;;;4984125;28;20487;-64
2022/01/19 06:18:26;;;;;;;4.17;3.90;;;;;;;;;;4982401;28;20446;-64
2022/01/19 06:20:52;;;;;;;5.50;4.73;;;;;;;;;;4987940;28;20415;-64
2022/01/19 06:23:18;;;;;;;4.10;3.90;;;;;;;;;;4985292;28;20453;-64
2022/01/19 06:25:44;;;;;;;9.53;4.20;;;;;;;;;;4986288;28;20497;-64
2022/01/19 06:28:11;;;;;;;4.67;4.37;;;;;;;;;;4985876;28;20425;-64
2022/01/19 06:30:37;;;;;;;4.37;3.97;;;;;;;;;;4985506;28;20802;-64
2022/01/19 06:33:03;;;;;;;5.67;5.03;;;;;;;;;;4983934;28;20444;-65
2022/01/19 06:35:29;;;;;;;5.97;5.40;;;;;;;;;;4985957;28;20492;-64
2022/01/19 06:37:55;;;;;;;6.80;5.50;;;;;;;;;;4987676;28;20425;-64
2022/01/19 06:40:25;;;;;;;15.37;10.37;;;;;;;;;;4983127;28;20444;-64
2022/01/19 06:42:51;;;;;;;15.20;10.00;;;;;;;;;;4984504;28;20495;-65
2022/01/19 06:45:17;;;;;;;12.40;9.00;;;;;;;;;;4986594;28;21020;-64
2022/01/19 06:47:43;;;;;;;14.80;8.90;;;;;;;;;;4985904;28;20438;-65
2022/01/19 06:50:10;;;;;;;10.10;6.70;;;;;;;;;;4988149;28;20479;-64
2022/01/19 06:52:37;;;;;;;10.70;7.10;;;;;;;;;;4982285;28;20464;-64
2022/01/19 06:55:03;;;;;;;9.47;7.23;;;;;;;;;;4973037;28;20481;-63
2022/01/19 06:57:29;;;;;;;9.37;7.23;;;;;;;;;;4980613;28;20444;-64
2022/01/19 06:59:55;;;;;;;8.27;6.50;;;;;;;;;;4984970;28;20925;-64
2022/01/19 07:02:21;;;;;;;6.93;6.33;;;;;;;;;;4986691;28;20523;-64
2022/01/19 07:04:49;;;;;;;6.07;5.23;;;;;;;;;;4990898;28;20484;-64
2022/01/19 07:07:19;;;;;;;5.30;4.40;;;;;;;;;;4987817;28;20492;-64
2022/01/19 07:09:45;;;;;;;8.03;5.53;;;;;;;;;;4990857;28;20539;-64
2022/01/19 07:12:12;;;;;;;6.23;5.23;;;;;;;;;;4988487;28;20531;-64
2022/01/19 07:14:38;;;;;;;4.73;4.20;;;;;;;;;;4989281;28;20460;-67
2022/01/19 07:17:04;;;;;;;6.37;5.77;;;;;;;;;;4990800;28;20459;-64
2022/01/19 07:19:30;;;;;;;5.27;4.37;;;;;;;;;;4987234;28;20429;-76
2022/01/19 07:21:56;;;;;;;4.33;4.03;;;;;;;;;;4989443;28;20511;-73
2022/01/19 07:24:22;;;;;;;4.87;3.77;;;;;;;;;;4991749;28;20523;-69
2022/01/19 07:26:48;;;;;;;4.13;3.93;;;;;;;;;;4991271;28;20440;-70
2022/01/19 07:29:14;;;;;;;8.23;6.67;;;;;;;;;;4991339;28;20425;-65
2022/01/19 07:31:41;;;;;;;6.73;6.13;;;;;;;;;;4989774;28;21537;-65
2022/01/19 07:34:07;;;;;;;7.80;6.90;;;;;;;;;;4987469;28;20480;-63
2022/01/19 07:36:33;;;;;;;6.93;5.80;;;;;;;;;;4986698;28;20440;-65
2022/01/19 07:38:59;;;;;;;11.60;5.87;;;;;;;;;;4988536;28;20426;-65
2022/01/19 07:41:25;;;;;;;7.43;6.80;;;;;;;;;;4988533;28;20437;-71
2022/01/19 07:43:51;;;;;;;5.70;5.20;;;;;;;;;;4989530;28;20429;-65
2022/01/19 07:46:17;;;;;;;6.23;5.03;;;;;;;;;;4983285;28;21011;-65
2022/01/19 07:48:43;;;;;;;4.83;4.47;;;;;;;;;;4991157;28;20921;-65
2022/01/19 07:51:10;;;;;;;6.33;5.67;;;;;;;;;;4984473;28;20441;-67
2022/01/19 07:53:36;;;;;;;5.67;5.13;;;;;;;;;;4990004;28;20520;-68
2022/01/19 07:56:03;;;;;;;4.73;4.43;;;;;;;;;;4989615;28;20516;-67
2022/01/19 07:58:29;;;;;;;8.37;4.87;;;;;;;;;;4989540;28;20862;-67
2022/01/19 08:00:55;;;;;;;6.93;4.67;;;;;;;;;;4990692;28;20461;-73
2022/01/19 08:03:21;;;;;;;4.60;4.30;;;;;;;;;;4982775;28;20516;-68
2022/01/19 08:05:47;;;;;;;9.90;7.33;;;;;;;;;;4986174;28;21084;-65
2022/01/19 08:08:13;;;;;;;8.50;6.20;;;;;;;;;;4988047;28;20508;-73
2022/01/19 08:10:42;;;;;;;8.20;6.53;;;;;;;;;;4987131;28;20527;-67
2022/01/19 08:13:08;;;;;;;7.47;6.40;;;;;;;;;;4987438;28;20432;-71
2022/01/19 08:15:34;;;;;;;18.70;8.10;;;;;;;;;;4989608;28;20457;-67
2022/01/19 08:18:00;;;;;;;25.98;15.25;;;;;;;;;;4987848;28;20499;-65
2022/01/19 08:20:26;;;;;;;30.53;15.10;;;;;;;;;;4987921;28;20190;-73
2022/01/19 08:22:52;;;;;;;21.70;12.43;;;;;;;;;;4990009;28;20841;-76
2022/01/19 08:25:18;;;;;;;13.43;9.47;;;;;;;;;;4991554;28;20473;-75
2022/01/19 08:27:44;;;;;;;17.33;9.30;;;;;;;;;;4991904;28;20782;-76
2022/01/19 08:30:11;;;;;;;13.17;9.00;;;;;;;;;;4991441;28;20432;-71
2022/01/19 08:32:37;;;;;;;23.47;10.17;;;;;;;;;;4990997;28;20421;-75
2022/01/19 08:35:04;;;;;;;23.37;11.37;;;;;;;;;;4989784;28;20441;-75
2022/01/19 08:37:30;;;;;;;26.40;11.80;;;;;;;;;;4987593;28;20426;-66
2022/01/19 08:39:56;;;;;;;30.57;13.83;;;;;;;;;;4985791;28;20956;-65
2022/01/19 08:42:22;;;;;;;25.80;11.43;;;;;;;;;;4986928;28;20859;-65
2022/01/19 08:44:48;;;;;;;10.83;9.10;;;;;;;;;;4988664;28;20480;-66
2022/01/19 08:47:15;;;;;;;10.33;8.60;;;;;;;;;;4984669;28;20437;-65
2022/01/19 08:49:41;;;;;;;13.20;8.70;;;;;;;;;;4987668;28;20863;-65
2022/01/19 08:52:07;;;;;;;17.90;10.03;;;;;;;;;;4982181;28;20965;-65
2022/01/19 08:54:33;;;;;;;20.47;11.80;;;;;;;;;;4983241;28;20465;-65
2022/01/19 08:57:04;;;;;;;28.80;14.43;;;;;;;;;;4986780;28;20953;-65
2022/01/19 08:59:30;;;;;;;19.03;11.63;;;;;;;;;;4982969;28;20448;-70
2022/01/19 09:01:57;;;;;;;14.53;9.37;;;;;;;;;;4985700;28;20429;-68
2022/01/19 09:04:23;;;;;;;9.50;7.37;;;;;;;;;;4983835;28;20452;-67
2022/01/19 09:06:49;;;;;;;8.57;6.40;;;;;;;;;;4987513;28;20433;-71
2022/01/19 09:09:15;;;;;;;6.47;5.90;;;;;;;;;;4984702;28;20449;-70
2022/01/19 09:11:43;;;;;;;6.30;5.73;;;;;;;;;;4985073;28;20441;-75
2022/01/19 09:14:10;;;;;;;7.27;5.73;;;;;;;;;;4990004;28;20961;-67
2022/01/19 09:16:36;;;;;;;7.63;5.90;;;;;;;;;;4985591;28;20440;-65
2022/01/19 09:19:03;;;;;;;7.07;6.23;;;;;;;;;;4989938;28;20437;-66
2022/01/19 09:21:30;;;;;;;6.73;5.80;;;;;;;;;;4987054;28;20813;-65
2022/01/19 09:23:56;;;;;;;8.43;6.63;;;;;;;;;;4984792;28;20456;-68
2022/01/19 09:26:21;;;;;;;9.30;7.33;;;;;;;;;;4988864;28;20484;-74
2022/01/19 09:28:47;;;;;;;10.57;7.77;;;;;;;;;;4989388;28;20914;-67
2022/01/19 09:31:16;;;;;;;12.13;9.40;;;;;;;;;;4988659;28;20553;-71
2022/01/19 09:33:44;;;;;;;10.40;8.93;;;;;;;;;;4988402;28;20417;-71
2022/01/19 09:38:54;;;;;;;18.47;12.10;;;;;;;;;;4989818;28;20527;-68
2022/01/19 09:41:20;;;;;;;15.93;11.90;;;;;;;;;;4981302;28;20473;-68
2022/01/19 09:43:49;;;;;;;16.50;11.00;;;;;;;;;;4984428;28;20483;-67
2022/01/19 09:46:15;;;;;;;18.88;14.73;;;;;;;;;;4978030;28;20813;-69
2022/01/19 09:48:41;;;;;;;15.00;12.37;;;;;;;;;;4983152;28;20693;-71
2022/01/19 09:51:07;;;;;;;18.60;12.30;;;;;;;;;;4953331;28;21029;-72
2022/01/19 09:53:33;;;;;;;15.13;11.23;;;;;;;;;;4982435;28;20481;-70
2022/01/19 09:55:59;;;;;;;16.37;12.87;;;;;;;;;;4975754;28;20469;-74
2022/01/19 09:58:25;;;;;;;17.60;13.57;;;;;;;;;;4987027;28;20460;-71
2022/01/19 10:00:51;;;;;;;20.60;12.63;;;;;;;;;;4978897;28;20457;-76
2022/01/19 10:03:25;;;;;;;23.30;12.93;;;;;;;;;;4978114;28;20429;-76
2022/01/19 10:06:01;;;;;;;20.13;13.17;;;;;;;;;;4984781;28;20481;-76
2022/01/19 10:08:30;;;;;;;15.83;12.43;;;;;;;;;;4980285;28;20491;-71
2022/01/19 10:17:02;;;;;;;16.97;12.97;;;;;;;;;;4978309;28;20443;-65
2022/01/19 10:19:31;;;;;;;15.27;11.50;;;;;;;;;;4986430;28;20448;-66
2022/01/19 10:22:02;;;;;;;19.60;13.10;;;;;;;;;;4989110;28;20409;-70
2022/01/19 10:24:34;;;;;;;19.40;12.40;;;;;;;;;;4986121;28;20449;-66
2022/01/19 10:27:17;;;;;;;18.13;12.50;;;;;;;;;;4980177;28;20445;-65
2022/01/19 10:29:43;;;;;;;16.93;12.30;;;;;;;;;;4985613;28;20528;-67
2022/01/19 10:32:10;;;;;;;18.43;11.17;;;;;;;;;;4976493;28;20575;-67
2022/01/19 10:34:36;;;;;;;15.77;11.90;;;;;;;;;;4984788;28;20475;-65
2022/01/19 10:37:03;;;;;;;16.60;11.87;;;;;;;;;;4985385;28;20442;-67
2022/01/19 10:39:52;;;;;;;20.20;12.70;;;;;;;;;;4986823;28;20440;-72
2022/01/19 10:42:19;;;;;;;18.77;11.53;;;;;;;;;;4982849;28;20532;-71
2022/01/19 10:44:50;;;;;;;19.37;12.73;;;;;;;;;;4989865;28;20476;-67
2022/01/19 10:47:17;;;;;;;15.80;11.60;;;;;;;;;;4992147;28;20449;-67
2022/01/19 10:49:50;;;;;;;20.90;12.97;;;;;;;;;;4979727;28;20453;-66
2022/01/19 10:52:28;;;;;;;15.70;10.87;;;;;;;;;;4989182;28;20451;-71
2022/01/19 10:54:54;;;;;;;15.70;10.37;;;;;;;;;;4992496;28;20417;-65
2022/01/19 10:57:20;;;;;;;16.30;10.70;;;;;;;;;;4982669;28;20452;-69
2022/01/19 10:59:47;;;;;;;21.13;14.00;;;;;;;;;;4990887;28;20413;-68
2022/01/19 11:02:13;;;;;;;16.63;11.90;;;;;;;;;;4979989;28;20455;-68
2022/01/19 11:04:40;;;;;;;14.20;11.43;;;;;;;;;;4986359;28;20475;-71
2022/01/19 11:07:07;;;;;;;18.40;13.83;;;;;;;;;;4990687;28;20941;-68
2022/01/19 11:09:35;;;;;;;31.97;17.07;;;;;;;;;;4991694;28;20788;-71
2022/01/19 11:12:04;;;;;;;19.27;13.27;;;;;;;;;;4991261;28;20806;-72
2022/01/19 11:14:30;;;;;;;36.47;20.60;;;;;;;;;;4991198;28;20835;-72
2022/01/19 11:16:56;;;;;;;25.40;19.63;;;;;;;;;;4989377;28;20464;-67
2022/01/19 11:19:23;;;;;;;24.50;16.37;;;;;;;;;;4993126;28;20921;-68
2022/01/19 11:21:58;;;;;;;23.07;14.37;;;;;;;;;;4992666;28;20511;-67
2022/01/19 11:24:31;;;;;;;21.33;14.20;;;;;;;;;;4992561;28;20950;-65
2022/01/19 11:26:58;;;;;;;24.33;14.97;;;;;;;;;;4993381;28;20437;-67
2022/01/19 11:29:24;;;;;;;20.87;13.10;;;;;;;;;;4989391;28;20946;-66
2022/01/19 11:31:52;;;;;;;26.37;16.10;;;;;;;;;;4992163;28;20505;-66
2022/01/19 11:34:37;;;;;;;20.20;11.83;;;;;;;;;;4993863;28;20424;-69
2022/01/19 11:37:03;;;;;;;19.20;12.67;;;;;;;;;;4992759;28;20449;-65
2022/01/19 11:39:30;;;;;;;24.43;14.93;;;;;;;;;;4982317;28;20433;-67
2022/01/19 11:42:00;;;;;;;20.47;14.43;;;;;;;;;;4987489;28;20480;-65
2022/01/19 11:44:32;;;;;;;20.90;13.33;;;;;;;;;;4988972;28;20480;-74
2022/01/19 11:47:18;;;;;;;18.17;11.50;;;;;;;;;;4991643;28;20434;-69
2022/01/19 11:49:44;;;;;;;19.23;13.23;;;;;;;;;;4980432;28;20933;-72
2022/01/19 11:52:11;;;;;;;27.50;19.00;;;;;;;;;;4992019;28;20429;-65
2022/01/19 11:54:38;;;;;;;25.77;13.77;;;;;;;;;;4990540;28;20435;-68
2022/01/19 11:57:11;;;;;;;19.57;13.83;;;;;;;;;;4992392;28;20436;-70
2022/01/19 11:59:47;;;;;;;21.60;14.60;;;;;;;;;;4992760;28;20448;-65
2022/01/19 12:02:26;;;;;;;27.30;16.90;;;;;;;;;;4987819;28;20459;-65
2022/01/19 12:04:56;;;;;;;17.00;12.80;;;;;;;;;;4990808;28;20469;-65
2022/01/19 12:07:36;;;;;;;23.87;17.00;;;;;;;;;;4989289;28;20988;-65
2022/01/19 12:10:03;;;;;;;21.30;14.20;;;;;;;;;;4990853;28;20437;-68
2022/01/19 12:12:33;;;;;;;22.63;13.70;;;;;;;;;;4990153;28;20433;-68
2022/01/19 12:15:03;;;;;;;22.40;13.43;;;;;;;;;;4991819;28;20429;-65
2022/01/19 12:17:51;;;;;;;21.40;13.63;;;;;;;;;;4991704;28;20483;-67
2022/01/19 12:20:36;;;;;;;18.00;12.37;;;;;;;;;;4988175;28;20437;-64
2022/01/19 12:23:21;;;;;;;18.23;12.70;;;;;;;;;;4986905;28;20452;-65
2022/01/19 12:25:54;;;;;;;15.53;11.33;;;;;;;;;;4985300;28;20574;-64
2022/01/19 12:28:39;;;;;;;18.67;12.90;;;;;;;;;;4987164;28;20461;-65
2022/01/19 12:31:23;;;;;;;16.80;11.27;;;;;;;;;;4989058;28;20479;-65
2022/01/19 12:34:04;;;;;;;16.80;11.63;;;;;;;;;;4988458;28;20480;-65
2022/01/19 12:36:44;;;;;;;15.97;11.00;;;;;;;;;;4986262;28;20515;-65
2022/01/19 12:39:25;;;;;;;17.13;11.70;;;;;;;;;;4985279;28;20506;-68
2022/01/19 12:41:58;;;;;;;12.23;10.80;;;;;;;;;;4979894;28;21257;-65
2022/01/19 12:44:45;;;;;;;15.00;11.47;;;;;;;;;;4979919;28;20445;-66
2022/01/19 12:47:29;;;;;;;17.37;10.47;;;;;;;;;;4983180;28;20450;-65
2022/01/19 12:49:57;;;;;;;16.00;12.00;;;;;;;;;;4983388;28;20579;-65
2022/01/19 12:52:25;;;;;;;16.13;11.43;;;;;;;;;;4982860;28;20971;-65
2022/01/19 12:54:52;;;;;;;15.77;12.43;;;;;;;;;;4985073;28;20777;-64
2022/01/19 12:57:18;;;;;;;17.13;11.50;;;;;;;;;;4984693;28;20456;-64
2022/01/19 12:59:45;;;;;;;15.60;10.77;;;;;;;;;;4990688;28;20430;-68
2022/01/19 13:02:14;;;;;;;20.70;12.80;;;;;;;;;;4985012;28;20545;-65
2022/01/19 13:04:41;;;;;;;16.47;11.67;;;;;;;;;;4990863;28;20432;-71
2022/01/19 13:07:19;;;;;;;21.07;11.20;;;;;;;;;;4989401;28;20472;-65
2022/01/19 13:10:09;;;;;;;16.77;11.80;;;;;;;;;;4983867;28;20465;-65
2022/01/19 13:12:38;;;;;;;13.20;11.53;;;;;;;;;;4983649;28;20441;-65
2022/01/19 13:15:05;;;;;;;18.17;11.30;;;;;;;;;;4986436;28;20450;-64
2022/01/19 13:17:41;;;;;;;20.00;11.87;;;;;;;;;;4982407;28;20437;-65
2022/01/19 13:20:12;;;;;;;52.93;24.93;;;;;;;;;;4980150;28;20443;-70
2022/01/19 13:22:51;;;;;;;16.67;12.30;;;;;;;;;;4979531;28;20452;-67
2022/01/19 13:25:35;;;;;;;18.13;12.40;;;;;;;;;;4981563;28;20484;-66
2022/01/19 13:28:02;;;;;;;17.43;12.30;;;;;;;;;;4984651;28;20468;-65
2022/01/19 13:30:29;;;;;;;22.47;12.37;;;;;;;;;;4980762;28;20920;-65
2022/01/19 13:32:56;;;;;;;18.87;13.07;;;;;;;;;;4982683;28;20450;-67
2022/01/19 13:35:23;;;;;;;20.50;12.60;;;;;;;;;;4981825;28;20958;-66
2022/01/19 13:37:58;;;;;;;15.07;11.73;;;;;;;;;;4986890;28;21011;-66
2022/01/19 13:40:31;;;;;;;16.00;10.80;;;;;;;;;;4984604;28;20476;-67
2022/01/19 13:42:57;;;;;;;18.07;12.93;;;;;;;;;;4987022;28;20456;-65
2022/01/19 13:45:50;;;;;;;16.57;10.80;;;;;;;;;;4979692;28;20997;-64
2022/01/19 13:51:14;;;;;;;19.27;12.30;;;;;;;;;;4985037;28;20468;-65
2022/01/19 13:53:49;;;;;;;16.70;11.63;;;;;;;;;;4983935;28;20552;-65
2022/01/19 13:56:22;;;;;;;13.50;10.50;;;;;;;;;;4983534;28;20500;-65
2022/01/19 13:58:51;;;;;;;11.47;9.20;;;;;;;;;;4984127;28;20441;-65
2022/01/19 14:01:23;;;;;;;21.77;10.13;;;;;;;;;;4983509;28;20461;-65
2022/01/19 14:03:49;;;;;;;10.67;9.13;;;;;;;;;;4984216;28;20442;-65
2022/01/19 14:06:23;;;;;;;10.83;9.20;;;;;;;;;;4986189;28;20495;-65
2022/01/19 14:08:49;;;;;;;14.30;10.37;;;;;;;;;;4990431;28;20501;-65
2022/01/19 14:11:25;;;;;;;16.83;10.03;;;;;;;;;;4990036;28;20439;-65
2022/01/19 14:14:01;;;;;;;11.60;9.80;;;;;;;;;;4990483;28;20477;-65
2022/01/19 14:16:31;;;;;;;12.43;9.43;;;;;;;;;;4989916;28;20459;-66
2022/01/19 14:19:16;;;;;;;12.50;9.10;;;;;;;;;;4994431;28;20433;-65
2022/01/19 14:22:03;;;;;;;19.27;10.07;;;;;;;;;;4991904;28;20999;-66
2022/01/19 14:24:50;;;;;;;19.43;10.43;;;;;;;;;;4992654;28;20445;-66
2022/01/19 14:27:17;;;;;;;13.43;9.30;;;;;;;;;;4987292;28;20495;-65
2022/01/19 14:30:02;;;;;;;12.33;9.90;;;;;;;;;;4986672;28;20594;-65
2022/01/19 14:32:36;;;;;;;16.90;9.70;;;;;;;;;;4992483;28;20448;-74
2022/01/19 14:35:02;;;;;;;12.20;9.93;;;;;;;;;;4993329;28;20428;-65
2022/01/19 14:37:28;;;;;;;13.27;9.47;;;;;;;;;;4991057;28;20436;-65
2022/01/19 14:40:07;;;;;;;15.33;9.03;;;;;;;;;;4990121;28;20460;-65
2022/01/19 14:42:35;;;;;;;15.47;11.10;;;;;;;;;;4992965;28;20768;-65
2022/01/19 14:45:37;;;;;;;17.20;10.27;;;;;;;;;;4984342;28;20488;-65
2022/01/19 14:48:16;;;;;;;14.60;10.70;;;;;;;;;;4990416;28;21955;-65
2022/01/19 14:50:42;;;;;;;12.30;9.57;;;;;;;;;;4994490;28;20420;-65
2022/01/19 14:53:09;;;;;;;12.57;9.60;;;;;;;;;;4994255;28;20416;-66
2022/01/19 14:55:37;;;;;;;17.40;10.40;;;;;;;;;;4990102;28;20433;-66
2022/01/19 14:58:05;;;;;;;17.07;9.63;;;;;;;;;;4990183;28;20444;-66
2022/01/19 15:00:32;;;;;;;11.27;9.90;;;;;;;;;;4989248;28;20792;-66
2022/01/19 15:03:01;;;;;;;11.70;9.00;;;;;;;;;;4987877;28;21028;-66
2022/01/19 15:05:36;;;;;;;13.57;10.40;;;;;;;;;;4985936;28;20539;-66
2022/01/19 15:08:03;;;;;;;12.70;10.40;;;;;;;;;;4990831;28;20483;-66
2022/01/19 15:10:30;;;;;;;13.83;10.87;;;;;;;;;;4985340;28;20436;-66
2022/01/19 15:12:56;;;;;;;12.13;9.60;;;;;;;;;;4989012;28;20471;-66
2022/01/19 15:15:26;;;;;;;14.73;10.53;;;;;;;;;;4987149;28;20448;-66
2022/01/19 15:17:52;;;;;;;16.10;10.03;;;;;;;;;;4991206;28;20440;-66
2022/01/19 15:20:18;;;;;;;12.90;9.97;;;;;;;;;;4988895;28;20445;-66
2022/01/19 15:22:45;;;;;;;13.80;8.57;;;;;;;;;;4988681;28;20429;-66
2022/01/19 15:25:11;;;;;;;22.40;13.83;;;;;;;;;;4989069;28;20492;-66
2022/01/19 15:27:38;;;;;;;18.70;12.83;;;;;;;;;;4989248;28;20464;-66
2022/01/19 15:30:05;;;;;;;24.87;14.97;;;;;;;;;;4985715;28;20865;-66
2022/01/19 15:32:31;;;;;;;20.93;13.80;;;;;;;;;;4984936;28;20528;-67
2022/01/19 15:34:57;;;;;;;25.87;15.17;;;;;;;;;;4980081;28;20965;-66
2022/01/19 15:37:23;;;;;;;14.30;10.70;;;;;;;;;;4987067;28;20449;-66
2022/01/19 15:39:52;;;;;;;16.33;10.50;;;;;;;;;;4981878;28;20782;-66
2022/01/19 15:42:18;;;;;;;14.87;8.53;;;;;;;;;;4954214;28;20441;-66
2022/01/19 15:44:44;;;;;;;8.20;7.43;;;;;;;;;;4988530;28;20447;-66
2022/01/19 15:47:11;;;;;;;8.93;8.10;;;;;;;;;;4981328;28;20507;-65
2022/01/19 15:49:37;;;;;;;16.13;9.27;;;;;;;;;;4981970;28;20452;-66
2022/01/19 15:52:04;;;;;;;12.13;8.80;;;;;;;;;;4984896;28;20480;-65
2022/01/19 15:54:30;;;;;;;11.50;8.50;;;;;;;;;;4985468;28;20921;-66
2022/01/19 15:56:56;;;;;;;10.30;7.63;;;;;;;;;;4988101;28;20736;-66
2022/01/19 15:59:23;;;;;;;9.60;7.97;;;;;;;;;;4985432;28;20452;-66
2022/01/19 16:01:49;;;;;;;9.50;8.13;;;;;;;;;;4982273;28;20447;-65
2022/01/19 16:04:15;;;;;;;9.00;7.63;;;;;;;;;;4984613;28;20495;-67
2022/01/19 16:06:44;;;;;;;8.00;6.80;;;;;;;;;;4984658;28;20487;-67